Time;durP1;ratioP1;P1;durP2;ratioP2;P2;SDS_P1;SDS_P2;PMS_P1;PMS_P2;Temp;Humidity;BMP_temperature;BMP_pressure;BME280_temperature;BME280_humidity;BME280_pressure;Samples;Min_cycle;Max_cycle;Signal;HPM_P1;HPM_P2
2023/03/23 00:00:55;;;;;;;2.83;2.63;;;;;;;11.04;91.75;96153.06;5054492;28;20203;-57
2023/03/23 00:03:24;;;;;;;3.60;3.30;;;;;;;11.08;91.61;96150.94;5053894;28;20564;-57
2023/03/23 00:05:51;;;;;;;2.90;2.70;;;;;;;11.08;91.64;96161.50;5054667;28;20252;-56
2023/03/23 00:08:21;;;;;;;6.97;3.40;;;;;;;11.10;91.05;96160.34;5057068;28;21038;-56
2023/03/23 00:10:52;;;;;;;3.07;2.87;;;;;;;10.90;92.95;96165.06;5053852;28;20737;-59
2023/03/23 00:13:20;;;;;;;3.47;2.90;;;;;;;10.97;92.71;96166.09;5053924;28;20199;-57
2023/03/23 00:15:48;;;;;;;3.23;2.93;;;;;;;10.98;91.63;96167.72;5053699;28;20230;-57
2023/03/23 00:18:22;;;;;;;3.27;2.97;;;;;;;11.03;90.51;96174.38;5053429;28;20246;-57
2023/03/23 00:20:49;;;;;;;4.57;2.83;;;;;;;10.97;90.29;96171.38;5053085;28;20261;-56
2023/03/23 00:23:18;;;;;;;2.93;2.50;;;;;;;10.96;90.56;96169.72;5053488;28;20305;-57
2023/03/23 00:25:52;;;;;;;2.70;2.50;;;;;;;10.95;90.51;96172.50;5052686;28;20208;-57
2023/03/23 00:28:24;;;;;;;2.90;2.60;;;;;;;10.89;91.70;96167.84;5051597;28;20290;-57
2023/03/23 00:30:56;;;;;;;4.27;2.30;;;;;;;10.92;91.59;96163.06;5052506;28;20199;-57
2023/03/23 00:33:23;;;;;;;2.83;2.63;;;;;;;10.91;90.91;96166.69;5052605;28;20265;-56
2023/03/23 00:35:52;;;;;;;3.03;2.70;;;;;;;10.90;90.50;96165.06;5034661;28;20230;-57
2023/03/23 00:38:19;;;;;;;2.93;2.53;;;;;;;10.91;91.75;96161.41;5052546;28;20199;-56
2023/03/23 00:40:47;;;;;;;3.10;2.87;;;;;;;10.83;93.07;96163.19;5053073;28;20199;-56
2023/03/23 00:43:15;;;;;;;8.97;2.70;;;;;;;10.84;93.30;96157.72;5052955;28;20234;-56
2023/03/23 00:45:41;;;;;;;3.13;2.73;;;;;;;10.87;92.91;96154.78;5052368;28;20298;-56
2023/03/23 00:48:08;;;;;;;4.17;2.90;;;;;;;10.86;94.03;96157.59;5053874;28;20202;-57
2023/03/23 00:50:34;;;;;;;3.27;2.73;;;;;;;10.81;95.13;96155.41;5053375;28;20309;-57
2023/03/23 00:53:01;;;;;;;3.90;2.80;;;;;;;10.80;94.20;96148.47;5053339;28;20206;-57
2023/03/23 00:55:30;;;;;;;4.40;3.43;;;;;;;10.82;95.20;96146.50;5054270;28;20210;-56
2023/03/23 00:57:58;;;;;;;3.20;2.97;;;;;;;10.87;94.13;96141.56;5052636;28;20211;-57
2023/03/23 01:00:24;;;;;;;4.03;3.30;;;;;;;10.92;93.79;96141.91;5052361;28;20230;-57
2023/03/23 01:02:52;;;;;;;3.23;2.93;;;;;;;10.85;94.67;96135.59;5052952;28;20200;-57
2023/03/23 01:05:18;;;;;;;3.87;2.90;;;;;;;10.80;95.21;96137.91;5050921;28;21407;-57
2023/03/23 01:07:45;;;;;;;3.47;3.17;;;;;;;10.82;94.98;96140.38;5052346;28;20280;-56
2023/03/23 01:10:15;;;;;;;3.13;2.90;;;;;;;10.76;95.70;96147.13;5052147;28;20568;-57
2023/03/23 01:12:43;;;;;;;4.07;3.13;;;;;;;10.76;95.71;96136.53;5052254;28;20199;-56
2023/03/23 01:15:15;;;;;;;4.07;2.87;;;;;;;10.75;95.53;96137.53;5050693;28;20206;-56
2023/03/23 01:17:42;;;;;;;3.07;2.80;;;;;;;10.72;96.59;96147.59;5051330;28;20629;-57
2023/03/23 01:20:11;;;;;;;4.97;3.00;;;;;;;10.72;95.73;96137.00;5051526;28;20643;-56
2023/03/23 01:22:38;;;;;;;2.47;2.27;;;;;;;10.69;95.38;96135.50;5052536;28;20203;-56
2023/03/23 01:25:06;;;;;;;3.33;2.37;;;;;;;10.72;94.85;96124.63;5050980;28;20212;-57
2023/03/23 01:27:32;;;;;;;2.60;2.40;;;;;;;10.69;95.33;96130.22;5051951;28;20545;-57
2023/03/23 01:29:59;;;;;;;2.47;2.27;;;;;;;10.71;94.45;96127.41;5051275;28;20253;-56
2023/03/23 01:32:29;;;;;;;2.30;2.10;;;;;;;10.70;94.06;96126.56;5051747;28;20222;-56
2023/03/23 01:34:56;;;;;;;2.50;2.30;;;;;;;10.66;96.41;96130.53;5051204;28;20203;-56
2023/03/23 01:37:25;;;;;;;3.07;2.00;;;;;;;10.71;96.13;96120.31;5050944;28;20235;-56
2023/03/23 01:39:54;;;;;;;2.63;2.43;;;;;;;10.63;96.80;96125.53;5051318;28;20222;-57
2023/03/23 01:42:22;;;;;;;2.37;2.17;;;;;;;10.72;96.13;96127.25;5051869;28;20589;-57
2023/03/23 01:45:26;;;;;;;2.60;2.40;;;;;;;10.75;96.49;96126.09;5050559;28;20677;-57
2023/03/23 01:47:57;;;;;;;2.47;2.27;;;;;;;10.73;96.55;96126.28;5051130;28;20645;-56
2023/03/23 01:50:24;;;;;;;2.70;2.50;;;;;;;10.67;98.13;96126.06;5050879;28;20207;-56
2023/03/23 01:52:52;;;;;;;2.70;2.50;;;;;;;10.66;97.54;96135.81;5051273;28;20238;-56
2023/03/23 01:55:20;;;;;;;2.67;2.50;;;;;;;10.72;96.87;96145.78;5050593;28;20209;-57
2023/03/23 01:57:46;;;;;;;2.47;2.37;;;;;;;10.72;96.02;96144.94;5051598;28;20227;-57
2023/03/23 02:00:15;;;;;;;2.50;2.30;;;;;;;10.77;96.28;96147.97;5050691;28;20210;-57
2023/03/23 02:02:42;;;;;;;3.10;2.67;;;;;;;10.78;96.74;96157.53;5051082;28;20203;-56
2023/03/23 02:05:13;;;;;;;3.03;2.73;;;;;;;10.85;95.48;96162.03;5048894;28;20202;-56
2023/03/23 02:07:40;;;;;;;3.17;2.90;;;;;;;10.90;95.30;96158.94;5050784;28;21612;-56
2023/03/23 02:10:08;;;;;;;3.23;2.90;;;;;;;10.93;95.75;96166.56;5052442;28;20632;-55
2023/03/23 02:12:34;;;;;;;3.23;2.83;;;;;;;10.94;96.88;96171.69;5069048;28;20195;-57
2023/03/23 02:15:02;;;;;;;3.10;2.83;;;;;;;10.94;96.48;96174.34;5064088;28;20195;-58
2023/03/23 02:17:33;;;;;;;3.17;2.70;;;;;;;10.99;95.94;96168.56;5060386;28;20326;-56
2023/03/23 02:20:09;;;;;;;3.20;2.60;;;;;;;10.98;96.93;96167.72;5052467;28;20210;-56
2023/03/23 02:22:59;;;;;;;4.17;3.10;;;;;;;11.03;95.10;96163.78;5051773;28;20536;-57
2023/03/23 02:25:37;;;;;;;3.33;2.87;;;;;;;11.05;95.11;96159.19;5050125;28;20646;-57
2023/03/23 02:28:26;;;;;;;3.33;3.03;;;;;;;11.08;93.51;96153.56;5051447;28;20278;-57
2023/03/23 02:31:06;;;;;;;3.53;3.23;;;;;;;11.14;93.44;96139.69;5051366;28;20204;-57
2023/03/23 02:33:48;;;;;;;4.00;3.20;;;;;;;11.15;94.86;96141.38;5050283;28;20210;-56
2023/03/23 02:36:21;;;;;;;3.27;3.07;;;;;;;11.17;95.89;96140.22;5050115;28;20564;-57
2023/03/23 02:38:54;;;;;;;4.70;3.37;;;;;;;11.16;95.64;96133.25;5050653;28;20647;-56
2023/03/23 02:41:23;;;;;;;3.87;3.33;;;;;;;11.19;95.40;96125.03;5050501;28;20214;-56
2023/03/23 02:43:50;;;;;;;3.60;3.30;;;;;;;11.17;95.36;96116.41;5051045;28;20199;-57
2023/03/23 02:46:17;;;;;;;3.50;3.20;;;;;;;11.21;96.21;96114.25;5050539;28;20195;-56
2023/03/23 02:48:48;;;;;;;4.00;3.60;;;;;;;11.24;95.87;96113.94;5050627;28;20215;-56
2023/03/23 02:51:15;;;;;;;3.57;3.27;;;;;;;11.25;95.13;96115.59;5051207;28;20198;-57
2023/03/23 02:53:43;;;;;;;4.40;3.40;;;;;;;11.27;93.96;96116.25;5054707;28;20265;-57
2023/03/23 02:56:10;;;;;;;3.67;3.33;;;;;;;11.27;93.93;96106.50;5057230;28;20553;-57
2023/03/23 02:58:37;;;;;;;4.47;3.30;;;;;;;11.28;93.02;96100.22;5058203;28;20539;-57
2023/03/23 03:01:52;;;;;;;3.70;3.40;;;;;;;11.28;92.67;96097.59;5053578;28;20210;-57
2023/03/23 03:04:23;;;;;;;3.67;3.37;;;;;;;11.30;92.96;96113.31;5054012;28;20207;-58
2023/03/23 03:06:59;;;;;;;3.67;3.30;;;;;;;11.28;93.10;96112.63;5054296;28;20588;-57
2023/03/23 03:09:32;;;;;;;3.57;3.27;;;;;;;11.27;93.42;96103.84;5054459;28;20640;-57
2023/03/23 03:12:06;;;;;;;3.70;3.40;;;;;;;11.25;91.64;96091.78;5055906;28;20289;-57
2023/03/23 03:14:38;;;;;;;3.73;3.43;;;;;;;11.25;93.52;96079.38;5059409;28;20207;-57
2023/03/23 03:17:08;;;;;;;4.83;3.03;;;;;;;11.28;92.72;96079.06;5057976;28;20649;-57
2023/03/23 03:19:39;;;;;;;3.60;3.40;;;;;;;11.31;91.82;96089.31;5054090;28;20227;-57
2023/03/23 03:22:07;;;;;;;3.43;3.13;;;;;;;11.29;93.20;96082.53;5053811;28;20282;-57
2023/03/23 03:24:36;;;;;;;3.07;2.73;;;;;;;11.34;89.79;96066.97;5054666;28;20299;-57
2023/03/23 03:27:06;;;;;;;4.37;2.77;;;;;;;11.32;92.03;96072.44;5054332;28;20195;-56
2023/03/23 03:29:35;;;;;;;3.07;2.40;;;;;;;11.24;90.64;96061.00;5052946;28;20691;-57
2023/03/23 03:32:04;;;;;;;2.77;2.10;;;;;;;11.26;89.66;96059.03;5054547;28;20218;-56
2023/03/23 03:34:31;;;;;;;2.30;2.10;;;;;;;11.29;92.56;96061.34;5070153;28;20210;-57
2023/03/23 03:37:00;;;;;;;3.93;2.07;;;;;;;11.32;90.54;96063.69;5072113;28;20223;-57
2023/03/23 03:39:28;;;;;;;1.50;1.40;;;;;;;11.35;88.87;96064.19;5068376;28;20584;-56
2023/03/23 03:41:55;;;;;;;3.57;2.00;;;;;;;11.42;87.18;96061.72;5067340;28;20207;-56
2023/03/23 03:44:22;;;;;;;1.77;1.50;;;;;;;11.45;84.66;96070.16;5058891;28;20203;-56
2023/03/23 03:46:48;;;;;;;2.00;1.23;;;;;;;11.53;86.11;96066.69;5054572;28;20207;-57
2023/03/23 03:49:15;;;;;;;2.90;1.60;;;;;;;11.60;84.38;96073.00;5053716;28;20607;-56
2023/03/23 03:51:43;;;;;;;1.80;1.27;;;;;;;11.62;82.39;96063.06;5054140;28;20215;-57
2023/03/23 03:54:11;;;;;;;1.30;1.20;;;;;;;11.66;83.17;96069.69;5053892;28;20195;-57
2023/03/23 03:56:40;;;;;;;3.33;1.27;;;;;;;11.70;83.71;96073.69;5053832;28;20678;-56
2023/03/23 03:59:07;;;;;;;1.47;1.37;;;;;;;11.68;84.07;96074.84;5053891;28;20204;-56
2023/03/23 04:01:34;;;;;;;3.30;1.53;;;;;;;11.70;84.17;96070.19;5052424;28;20276;-58
2023/03/23 04:04:01;;;;;;;3.33;1.57;;;;;;;11.71;85.63;96075.38;5053401;28;20269;-57
2023/03/23 04:06:27;;;;;;;2.20;1.50;;;;;;;11.73;83.23;96067.25;5053270;28;20214;-57
2023/03/23 04:08:55;;;;;;;1.43;1.37;;;;;;;11.72;83.62;96074.41;5053372;28;20207;-57
2023/03/23 04:11:23;;;;;;;1.53;1.30;;;;;;;11.75;83.52;96073.22;5052757;28;20211;-56
2023/03/23 04:13:49;;;;;;;3.20;1.30;;;;;;;11.76;84.09;96075.69;5053127;28;20213;-57
2023/03/23 04:16:16;;;;;;;1.90;1.43;;;;;;;11.71;84.54;96062.13;5053580;28;20630;-57
2023/03/23 04:18:44;;;;;;;1.30;1.20;;;;;;;11.74;83.98;96069.75;5053468;28;20235;-57
2023/03/23 04:21:11;;;;;;;2.97;1.40;;;;;;;11.75;86.29;96065.28;5053144;28;20203;-58
2023/03/23 04:23:38;;;;;;;1.10;1.10;;;;;;;11.71;88.04;96064.78;5053271;28;20624;-58
2023/03/23 04:26:05;;;;;;;2.70;1.50;;;;;;;11.71;85.41;96064.78;5054290;28;20210;-58
2023/03/23 04:28:34;;;;;;;2.07;1.10;;;;;;;11.70;86.55;96057.78;5053798;28;20202;-57
2023/03/23 04:31:01;;;;;;;2.10;1.10;;;;;;;11.70;85.59;96068.38;5054863;28;20242;-56
2023/03/23 04:33:30;;;;;;;1.67;1.47;;;;;;;11.71;86.18;96064.78;5068954;28;20180;-58
2023/03/23 04:35:57;;;;;;;2.13;1.47;;;;;;;11.73;83.32;96057.47;5075290;28;20179;-58
2023/03/23 04:38:29;;;;;;;1.60;1.30;;;;;;;11.77;82.77;96056.16;5072699;28;20227;-58
2023/03/23 04:40:56;;;;;;;2.20;1.60;;;;;;;11.78;84.45;96064.94;5055222;28;20207;-57
2023/03/23 04:43:24;;;;;;;2.13;1.40;;;;;;;11.76;83.64;96057.16;5053649;28;20199;-58
2023/03/23 04:45:55;;;;;;;1.67;1.57;;;;;;;11.76;82.80;96062.44;5052991;28;20343;-58
2023/03/23 04:48:22;;;;;;;2.27;1.90;;;;;;;11.75;83.69;96065.28;5053785;28;20202;-57
2023/03/23 04:50:50;;;;;;;2.00;1.90;;;;;;;11.77;84.17;96069.41;5051794;28;21311;-58
2023/03/23 04:53:17;;;;;;;1.90;1.80;;;;;;;11.73;87.67;96068.06;5053147;28;20210;-57
2023/03/23 04:55:44;;;;;;;2.00;1.90;;;;;;;11.76;86.59;96065.09;5052696;28;20256;-57
2023/03/23 04:58:12;;;;;;;2.23;1.93;;;;;;;11.76;86.99;96066.94;5053341;28;20230;-57
2023/03/23 05:00:39;;;;;;;2.20;2.07;;;;;;;11.77;88.16;96068.56;5051657;28;20652;-58
2023/03/23 05:03:07;;;;;;;1.80;1.70;;;;;;;11.77;87.08;96073.88;5035316;28;20207;-58
2023/03/23 05:05:35;;;;;;;3.40;2.20;;;;;;;11.79;86.27;96058.66;5051894;28;20199;-57
2023/03/23 05:08:02;;;;;;;2.50;2.30;;;;;;;11.77;87.43;96048.22;5052953;28;20238;-57
2023/03/23 05:10:30;;;;;;;4.27;2.60;;;;;;;11.79;87.09;96045.41;5051773;28;20207;-58
2023/03/23 05:12:56;;;;;;;2.93;2.60;;;;;;;11.78;89.32;96049.88;5051915;28;20200;-57
2023/03/23 05:15:23;;;;;;;2.20;2.10;;;;;;;11.80;86.91;96055.00;5051957;28;20211;-58
2023/03/23 05:17:52;;;;;;;2.17;2.03;;;;;;;11.81;84.71;96057.50;5051982;28;20254;-58
2023/03/23 05:20:21;;;;;;;2.07;1.57;;;;;;;11.76;83.48;96065.09;5051261;28;20615;-58
2023/03/23 05:22:49;;;;;;;2.97;1.70;;;;;;;11.80;85.11;96070.91;5052304;28;20203;-58
2023/03/23 05:25:18;;;;;;;3.27;2.17;;;;;;;11.79;85.68;96072.75;5052029;28;20199;-56
2023/03/23 05:27:48;;;;;;;4.53;2.57;;;;;;;11.82;88.11;96074.22;5051717;28;20882;-59
2023/03/23 05:30:16;;;;;;;3.20;2.50;;;;;;;11.82;87.83;96083.00;5051267;28;20207;-58
2023/03/23 05:32:44;;;;;;;2.97;2.50;;;;;;;11.85;87.25;96082.66;5052032;28;20288;-58
2023/03/23 05:35:12;;;;;;;3.63;2.83;;;;;;;11.89;87.25;96086.66;5051542;28;20215;-57
2023/03/23 05:37:39;;;;;;;4.60;2.50;;;;;;;11.89;88.82;96089.31;5051254;28;20693;-57
2023/03/23 05:40:08;;;;;;;4.00;2.83;;;;;;;11.87;89.63;96085.97;5050915;28;20214;-59
2023/03/23 05:42:35;;;;;;;3.13;2.83;;;;;;;11.90;90.34;96085.63;5051238;28;20306;-57
2023/03/23 05:45:02;;;;;;;2.83;2.63;;;;;;;11.87;89.24;96080.69;5051813;28;20210;-57
2023/03/23 05:47:30;;;;;;;3.80;3.20;;;;;;;11.89;89.13;96089.31;5050647;28;20206;-57
2023/03/23 05:49:56;;;;;;;2.50;2.40;;;;;;;11.91;88.95;96084.66;5051302;28;20199;-56
2023/03/23 05:52:24;;;;;;;3.10;2.80;;;;;;;11.91;89.91;96097.91;5050038;28;20215;-56
2023/03/23 05:54:52;;;;;;;3.23;2.33;;;;;;;11.93;89.69;96103.88;5050977;28;20199;-57
2023/03/23 05:57:21;;;;;;;3.53;2.60;;;;;;;11.90;88.88;96101.53;5051922;28;20234;-56
2023/03/23 05:59:48;;;;;;;2.50;2.30;;;;;;;11.93;89.89;96106.53;5051641;28;20222;-56
2023/03/23 06:02:14;;;;;;;3.40;2.80;;;;;;;11.96;88.18;96103.56;5051394;28;20212;-57
2023/03/23 06:04:41;;;;;;;3.13;2.57;;;;;;;11.97;88.41;96107.84;5053505;28;20203;-57
2023/03/23 06:07:12;;;;;;;2.43;2.23;;;;;;;11.99;87.14;96115.63;5057207;28;20200;-57
2023/03/23 06:09:38;;;;;;;2.20;2.00;;;;;;;12.19;76.80;96105.53;5060415;28;20241;-58
2023/03/23 06:12:07;;;;;;;2.30;2.10;;;;;;;12.34;74.33;96099.41;5055103;28;20215;-56
2023/03/23 06:14:34;;;;;;;2.20;1.90;;;;;;;12.45;73.76;96095.56;5051646;28;20203;-58
2023/03/23 06:17:00;;;;;;;2.20;2.00;;;;;;;12.57;73.13;96096.91;5050703;28;20234;-56
2023/03/23 06:19:28;;;;;;;1.90;1.80;;;;;;;12.74;68.89;96101.16;5033036;28;20237;-57
2023/03/23 06:21:55;;;;;;;1.73;1.63;;;;;;;12.91;67.58;96096.63;5050587;28;20203;-57
2023/03/23 06:24:22;;;;;;;2.10;1.77;;;;;;;13.10;66.00;96108.72;5050978;28;20200;-58
2023/03/23 06:26:48;;;;;;;2.10;1.90;;;;;;;13.36;63.99;96109.25;5049932;28;20514;-56
2023/03/23 06:29:16;;;;;;;1.80;1.70;;;;;;;13.44;64.79;96114.53;5048639;28;20200;-58
2023/03/23 06:31:45;;;;;;;2.57;1.80;;;;;;;13.60;64.19;96113.66;5032850;28;20884;-56
2023/03/23 06:34:12;;;;;;;1.97;1.83;;;;;;;13.70;64.25;96117.75;5049585;28;20636;-66
2023/03/23 06:36:39;;;;;;;1.40;1.30;;;;;;;13.88;62.31;96112.97;5049609;28;20211;-57
2023/03/23 06:39:09;;;;;;;3.63;3.33;;;;;;;13.99;63.46;96109.09;5064271;28;20234;-57
2023/03/23 06:41:36;;;;;;;3.47;3.00;;;;;;;14.13;61.58;96108.31;5067473;28;20203;-57
2023/03/23 06:44:02;;;;;;;2.30;2.10;;;;;;;14.25;61.77;96108.69;5051246;28;20215;-57
2023/03/23 06:46:31;;;;;;;2.87;1.80;;;;;;;14.36;60.28;96105.66;5050599;28;20603;-56
2023/03/23 06:48:59;;;;;;;2.00;1.80;;;;;;;14.48;61.05;96106.88;5049833;28;20417;-57
2023/03/23 06:51:26;;;;;;;2.00;1.90;;;;;;;14.58;59.23;96101.31;5050015;28;20211;-57
2023/03/23 06:53:52;;;;;;;2.42;1.65;;;;;;;14.69;59.66;96101.69;5052160;28;20195;-57
2023/03/23 06:56:18;;;;;;;1.75;1.63;;;;;;;14.79;58.24;96102.25;5061979;28;20203;-57
2023/03/23 06:58:46;;;;;;;5.20;3.17;;;;;;;14.90;58.51;96103.63;5056388;28;20218;-57
2023/03/23 07:01:14;;;;;;;5.13;2.95;;;;;;;14.98;58.89;96105.38;5054029;28;20635;-57
2023/03/23 07:03:42;;;;;;;1.80;1.70;;;;;;;15.08;57.88;96111.25;5052695;28;20291;-56
2023/03/23 07:06:09;;;;;;;1.70;1.60;;;;;;;15.14;57.30;96105.19;5050871;28;20203;-56
2023/03/23 07:08:38;;;;;;;1.70;1.60;;;;;;;15.21;57.08;96116.75;5050951;28;20268;-56
2023/03/23 07:11:05;;;;;;;2.10;1.60;;;;;;;15.28;56.91;96112.34;5050855;28;20207;-57
2023/03/23 07:13:32;;;;;;;2.10;1.85;;;;;;;15.31;56.52;96123.47;5051027;28;20211;-56
2023/03/23 07:15:59;;;;;;;3.47;1.65;;;;;;;15.41;55.49;96117.84;5050448;28;20203;-57
2023/03/23 07:18:25;;;;;;;2.10;1.90;;;;;;;15.48;55.10;96123.28;5051752;28;20258;-57
2023/03/23 07:20:53;;;;;;;1.83;1.73;;;;;;;15.60;54.27;96122.63;5049728;28;20211;-57
2023/03/23 07:23:20;;;;;;;2.30;1.92;;;;;;;15.68;54.72;96129.72;5050367;28;20202;-57
2023/03/23 07:25:48;;;;;;;2.15;1.75;;;;;;;15.76;55.41;96126.94;5050593;28;20294;-58
2023/03/23 07:28:15;;;;;;;2.28;1.70;;;;;;;15.83;55.79;96127.84;5050612;28;20237;-57
2023/03/23 07:30:42;;;;;;;4.15;1.88;;;;;;;15.89;57.08;96119.91;5032679;28;20210;-57
2023/03/23 07:33:10;;;;;;;4.22;1.90;;;;;;;15.96;56.98;96119.16;5050313;28;20210;-57
2023/03/23 07:35:37;;;;;;;2.45;1.45;;;;;;;15.97;55.46;96136.81;5053098;28;20221;-57
2023/03/23 07:38:07;;;;;;;2.70;1.80;;;;;;;15.93;55.49;96145.19;5056136;28;20258;-56
2023/03/23 07:40:34;;;;;;;1.98;1.63;;;;;;;15.93;57.11;96145.19;5055549;28;20195;-57
2023/03/23 07:43:01;;;;;;;1.60;1.50;;;;;;;15.90;55.82;96144.75;5054407;28;20210;-57
2023/03/23 07:45:28;;;;;;;4.40;1.75;;;;;;;15.90;56.67;96148.22;5054062;28;20207;-56
2023/03/23 07:47:54;;;;;;;1.65;1.55;;;;;;;15.90;55.99;96145.56;5053861;28;20204;-58
2023/03/23 07:50:23;;;;;;;1.75;1.65;;;;;;;15.96;57.09;96148.47;5054864;28;20269;-57
2023/03/23 07:52:50;;;;;;;2.00;1.85;;;;;;;15.92;56.04;96151.53;5052709;28;20207;-56
2023/03/23 07:55:18;;;;;;;1.83;1.70;;;;;;;16.01;54.94;96146.91;5053568;28;20203;-57
2023/03/23 07:57:45;;;;;;;2.67;1.90;;;;;;;16.06;57.21;96144.50;5053599;28;20211;-57
2023/03/23 08:00:15;;;;;;;2.20;2.00;;;;;;;16.09;56.42;96145.94;5053407;28;20207;-57
2023/03/23 08:02:42;;;;;;;5.22;3.10;;;;;;;16.18;56.76;96136.81;5053516;28;20210;-57
2023/03/23 08:05:09;;;;;;;3.08;2.88;;;;;;;16.17;53.33;96137.84;5053207;28;20623;-60
2023/03/23 08:07:36;;;;;;;3.47;2.53;;;;;;;16.17;54.18;96137.84;5053369;28;20623;-58
2023/03/23 08:10:03;;;;;;;2.38;1.90;;;;;;;16.25;54.11;96148.38;5053656;28;20207;-57
2023/03/23 08:12:31;;;;;;;2.40;1.90;;;;;;;16.24;53.23;96147.56;5053674;28;20210;-56
2023/03/23 08:14:59;;;;;;;1.50;1.40;;;;;;;16.24;54.81;96142.22;5053242;28;20210;-57
2023/03/23 08:17:25;;;;;;;1.95;1.83;;;;;;;16.16;54.12;96146.84;5053263;28;20211;-56
2023/03/23 08:19:52;;;;;;;1.80;1.70;;;;;;;16.17;53.58;96146.66;5053637;28;20207;-56
2023/03/23 08:22:18;;;;;;;3.15;1.75;;;;;;;16.19;53.96;96152.63;5052980;28;20211;-59
2023/03/23 08:24:45;;;;;;;1.75;1.65;;;;;;;16.21;53.53;96152.44;5053216;28;20269;-58
2023/03/23 08:27:12;;;;;;;2.25;2.08;;;;;;;16.24;53.58;96152.91;5052669;28;20203;-57
2023/03/23 08:29:41;;;;;;;2.35;1.80;;;;;;;16.33;55.04;96157.06;5053048;28;20196;-56
2023/03/23 08:32:07;;;;;;;1.80;1.67;;;;;;;16.38;53.74;96144.00;5053381;28;20222;-55
2023/03/23 08:34:34;;;;;;;1.50;1.40;;;;;;;16.49;55.06;96140.00;5052495;28;20222;-55
2023/03/23 08:37:00;;;;;;;2.03;1.90;;;;;;;16.57;54.59;96153.25;5052773;28;20207;-55
2023/03/23 08:39:27;;;;;;;2.22;2.10;;;;;;;16.64;53.33;96159.47;5052574;28;20220;-56
2023/03/23 08:41:54;;;;;;;2.60;1.88;;;;;;;16.70;52.76;96153.34;5053229;28;20215;-56
2023/03/23 08:44:20;;;;;;;1.75;1.65;;;;;;;16.79;53.12;96146.84;5052871;28;20200;-56
2023/03/23 08:46:54;;;;;;;2.15;1.65;;;;;;;16.90;52.93;96151.66;5053073;28;20199;-55
2023/03/23 08:49:20;;;;;;;1.58;1.48;;;;;;;16.83;51.40;96153.44;5051923;28;20214;-54
2023/03/23 08:51:47;;;;;;;1.92;1.75;;;;;;;16.88;52.23;96153.72;5052168;28;20207;-55
2023/03/23 08:54:14;;;;;;;2.15;1.83;;;;;;;16.93;51.41;96159.28;5052155;28;20698;-55
2023/03/23 08:56:41;;;;;;;4.13;3.72;;;;;;;17.01;51.50;96155.63;5052346;28;21143;-55
2023/03/23 08:59:08;;;;;;;1.75;1.65;;;;;;;17.04;50.54;96165.13;5052527;28;20294;-54
2023/03/23 09:01:35;;;;;;;2.38;1.52;;;;;;;17.06;50.09;96171.09;5052336;28;20555;-54
2023/03/23 09:04:03;;;;;;;1.67;1.58;;;;;;;17.09;50.54;96174.19;5052834;28;20211;-54
2023/03/23 09:06:30;;;;;;;1.98;1.80;;;;;;;17.12;51.20;96170.31;5052443;28;20207;-55
2023/03/23 09:08:56;;;;;;;1.88;1.77;;;;;;;17.17;51.28;96171.38;5052697;28;20191;-54
2023/03/23 09:11:23;;;;;;;1.80;1.70;;;;;;;17.15;52.42;96180.59;5052540;28;20651;-55
2023/03/23 09:13:49;;;;;;;1.85;1.70;;;;;;;17.17;51.24;96186.59;5053140;28;20207;-54
2023/03/23 09:16:16;;;;;;;1.70;1.60;;;;;;;17.21;51.35;96190.53;5053913;28;20224;-55
2023/03/23 09:18:42;;;;;;;2.08;1.83;;;;;;;17.20;51.70;96187.03;5052887;28;20235;-55
2023/03/23 09:21:10;;;;;;;1.98;1.60;;;;;;;17.21;51.67;96183.34;5053784;28;20207;-55
2023/03/23 09:23:36;;;;;;;3.15;1.70;;;;;;;17.16;52.58;96192.94;5052692;28;20214;-55
2023/03/23 09:26:04;;;;;;;1.83;1.73;;;;;;;17.16;52.93;96200.97;5056190;28;20218;-54
2023/03/23 09:28:32;;;;;;;5.03;2.00;;;;;;;17.12;52.12;96194.34;5067683;28;20195;-56
2023/03/23 09:30:58;;;;;;;2.22;2.05;;;;;;;17.14;51.86;96189.66;5071016;28;20272;-55
2023/03/23 09:33:25;;;;;;;1.30;1.20;;;;;;;17.19;51.29;96200.56;5070712;28;20225;-55
2023/03/23 09:35:52;;;;;;;2.50;1.63;;;;;;;17.17;49.78;96198.09;5069287;28;20203;-56
2023/03/23 09:38:21;;;;;;;1.90;1.80;;;;;;;17.22;50.55;96216.22;5056262;28;20261;-55
2023/03/23 09:40:49;;;;;;;1.88;1.73;;;;;;;17.19;51.13;96201.41;5052433;28;20642;-56
2023/03/23 09:43:40;;;;;;;4.30;1.88;;;;;;;17.20;51.97;96202.22;5051945;28;20286;-57
2023/03/23 09:46:18;;;;;;;2.17;1.70;;;;;;;17.21;51.30;96203.88;5052216;28;20249;-57
2023/03/23 09:48:50;;;;;;;1.95;1.75;;;;;;;17.17;50.60;96208.78;5052331;28;20218;-58
2023/03/23 09:51:26;;;;;;;2.00;1.48;;;;;;;17.21;52.05;96210.06;5051180;28;20207;-56
2023/03/23 09:53:58;;;;;;;1.80;1.70;;;;;;;17.21;53.22;96209.22;5051451;28;20214;-55
2023/03/23 09:56:27;;;;;;;3.33;1.83;;;;;;;17.27;53.69;96213.78;5051490;28;20210;-55
2023/03/23 09:58:56;;;;;;;1.90;1.80;;;;;;;17.31;51.74;96207.03;5051927;28;20314;-56
2023/03/23 10:01:24;;;;;;;2.50;1.33;;;;;;;17.31;51.85;96215.88;5051631;28;20234;-56
2023/03/23 10:03:56;;;;;;;3.58;1.67;;;;;;;17.33;51.93;96223.69;5051876;28;20207;-56
2023/03/23 10:06:23;;;;;;;1.85;1.50;;;;;;;17.37;52.38;96227.63;5051141;28;20282;-56
2023/03/23 10:08:52;;;;;;;2.30;1.58;;;;;;;17.43;50.96;96229.50;5052064;28;20211;-56
2023/03/23 10:11:27;;;;;;;2.55;1.70;;;;;;;17.35;51.57;96227.00;5051647;28;20198;-55
2023/03/23 10:14:09;;;;;;;2.35;1.60;;;;;;;17.31;53.21;96223.91;5051163;28;20210;-56
2023/03/23 10:16:44;;;;;;;3.42;2.10;;;;;;;17.30;53.47;96224.09;5050966;28;20203;-55
2023/03/23 10:19:13;;;;;;;3.80;1.70;;;;;;;17.35;53.97;96232.38;5063221;28;20298;-56
2023/03/23 10:21:43;;;;;;;3.20;1.85;;;;;;;17.35;53.14;96221.66;5061258;28;20211;-56
2023/03/23 10:24:11;;;;;;;2.38;1.95;;;;;;;17.28;52.83;96226.97;5051434;28;20218;-56
2023/03/23 10:26:46;;;;;;;2.35;1.88;;;;;;;17.24;52.00;96222.19;5051273;28;20331;-56
2023/03/23 10:29:17;;;;;;;2.30;1.92;;;;;;;17.25;54.03;96227.34;5051451;28;20546;-57
2023/03/23 10:31:47;;;;;;;1.90;1.80;;;;;;;17.21;53.72;96225.25;5050727;28;20203;-56
2023/03/23 10:34:18;;;;;;;4.00;2.03;;;;;;;17.22;53.90;96210.88;5056991;28;20288;-57
2023/03/23 10:36:54;;;;;;;2.45;1.80;;;;;;;17.26;55.15;96206.78;5060233;28;20199;-58
2023/03/23 10:39:22;;;;;;;2.17;1.98;;;;;;;17.34;55.33;96209.31;5057902;28;20250;-59
2023/03/23 10:41:52;;;;;;;4.03;2.60;;;;;;;17.32;53.53;96214.03;5051058;28;20583;-59
2023/03/23 10:44:21;;;;;;;2.13;1.77;;;;;;;17.35;54.38;96211.81;5050048;28;20615;-57
2023/03/23 10:46:54;;;;;;;4.25;2.40;;;;;;;17.36;52.80;96207.25;5050059;28;20207;-56
2023/03/23 10:49:24;;;;;;;1.98;1.88;;;;;;;17.44;53.85;96209.78;5049864;28;20195;-57
2023/03/23 10:51:59;;;;;;;1.95;1.85;;;;;;;17.50;52.17;96216.22;5050068;28;20206;-57
2023/03/23 10:54:27;;;;;;;1.98;1.88;;;;;;;17.52;51.03;96212.31;5050092;28;20194;-57
2023/03/23 10:56:55;;;;;;;2.15;1.98;;;;;;;17.44;51.22;96217.81;5050409;28;20191;-63
2023/03/23 10:59:28;;;;;;;3.25;1.83;;;;;;;17.48;52.57;96205.72;5050753;28;20219;-55
2023/03/23 11:01:56;;;;;;;1.95;1.85;;;;;;;17.55;51.03;96206.56;5049601;28;20220;-56
2023/03/23 11:04:23;;;;;;;2.05;1.88;;;;;;;17.62;51.73;96204.78;5050598;28;20211;-56
2023/03/23 11:06:52;;;;;;;2.75;1.73;;;;;;;17.69;52.11;96211.00;5050359;28;20191;-56
2023/03/23 11:09:20;;;;;;;2.17;2.08;;;;;;;17.78;51.73;96212.47;5049666;28;20582;-56
2023/03/23 11:11:50;;;;;;;2.00;1.90;;;;;;;17.90;52.13;96207.41;5051958;28;20649;-56
2023/03/23 11:14:20;;;;;;;2.53;2.33;;;;;;;18.08;52.95;96218.41;5036724;28;20623;-56
2023/03/23 11:16:52;;;;;;;2.03;1.83;;;;;;;18.21;53.56;96214.97;5054672;28;20587;-56
2023/03/23 11:19:24;;;;;;;2.08;1.88;;;;;;;18.27;50.30;96214.16;5054592;28;20746;-55
2023/03/23 11:21:52;;;;;;;1.63;1.52;;;;;;;18.38;49.74;96208.22;5054284;28;20643;-56
2023/03/23 11:24:19;;;;;;;2.05;1.95;;;;;;;18.47;50.04;96209.66;5054752;28;20238;-56
2023/03/23 11:26:47;;;;;;;3.65;2.00;;;;;;;18.53;53.71;96206.19;5054260;28;20210;-56
2023/03/23 11:29:15;;;;;;;3.03;1.95;;;;;;;18.63;50.99;96201.31;5054743;28;20438;-56
2023/03/23 11:31:46;;;;;;;2.03;1.92;;;;;;;18.57;48.54;96202.09;5054586;28;20519;-56
2023/03/23 11:34:16;;;;;;;2.67;1.85;;;;;;;18.60;50.32;96203.56;5054681;28;20195;-56
2023/03/23 11:36:44;;;;;;;2.55;1.88;;;;;;;18.59;51.41;96207.25;5054563;28;20253;-55
2023/03/23 11:39:24;;;;;;;2.03;1.92;;;;;;;18.72;51.52;96216.13;5054577;28;20636;-56
2023/03/23 11:41:50;;;;;;;1.80;1.70;;;;;;;18.75;49.84;96213.03;5056634;28;20206;-56